Time;durP1;ratioP1;P1;durP2;ratioP2;P2;SDS_P1;SDS_P2;PMS_P1;PMS_P2;Temp;Humidity;BMP_temperature;BMP_pressure;BME280_temperature;BME280_humidity;BME280_pressure;Samples;Min_cycle;Max_cycle;Signal;HPM_P1;HPM_P2
2022/08/25 00:01:17;;;;;;;4.35;2.03;;;23.20;77.70;;;;;;5013258;28;20072;-51
2022/08/25 00:03:44;;;;;;;5.73;2.90;;;23.20;77.70;;;;;;5013370;28;20030;-50
2022/08/25 00:06:10;;;;;;;4.30;2.60;;;23.20;77.70;;;;;;5013246;28;20018;-47
2022/08/25 00:08:37;;;;;;;3.50;2.55;;;23.10;78.00;;;;;;5013304;28;20748;-50
2022/08/25 00:11:05;;;;;;;4.45;2.22;;;23.20;78.30;;;;;;5013480;28;20100;-47
2022/08/25 00:13:30;;;;;;;6.45;2.35;;;23.00;78.30;;;;;;5012954;28;20037;-48
2022/08/25 00:15:56;;;;;;;5.13;2.30;;;23.10;78.40;;;;;;5013329;28;20026;-50
2022/08/25 00:18:22;;;;;;;6.15;2.10;;;23.00;78.50;;;;;;5013003;28;20050;-50
2022/08/25 00:20:48;;;;;;;7.38;2.70;;;23.00;78.50;;;;;;5013361;28;20022;-48
2022/08/25 00:23:13;;;;;;;3.55;2.05;;;23.00;78.70;;;;;;5013190;28;20641;-50
2022/08/25 00:25:39;;;;;;;3.72;1.83;;;22.90;78.90;;;;;;5013377;28;20032;-51
2022/08/25 00:28:05;;;;;;;3.70;2.15;;;22.90;79.00;;;;;;5011876;28;20018;-52
2022/08/25 00:30:30;;;;;;;5.95;2.13;;;22.90;79.20;;;;;;5013043;28;20544;-50
2022/08/25 00:32:56;;;;;;;6.63;2.08;;;22.90;79.20;;;;;;5011191;28;20092;-52
2022/08/25 00:35:22;;;;;;;7.90;2.40;;;22.90;79.40;;;;;;5013464;28;20494;-49
2022/08/25 00:37:48;;;;;;;5.15;2.05;;;22.90;79.50;;;;;;5013207;28;20022;-48
2022/08/25 00:40:13;;;;;;;2.90;2.28;;;22.80;79.60;;;;;;5011597;28;20030;-50
2022/08/25 00:42:40;;;;;;;2.38;2.13;;;22.80;79.80;;;;;;5012314;28;20527;-52
2022/08/25 00:45:07;;;;;;;4.50;2.35;;;22.70;80.00;;;;;;5012545;28;20199;-51
2022/08/25 00:47:33;;;;;;;6.60;2.97;;;22.70;80.30;;;;;;5011100;28;20486;-48
2022/08/25 00:50:01;;;;;;;9.38;2.80;;;22.80;81.10;;;;;;5012676;28;20040;-48
2022/08/25 00:53:04;;;;;;;5.05;2.65;;;22.70;80.50;;;;;;5011979;28;20112;-49
2022/08/25 00:55:35;;;;;;;6.72;2.60;;;22.60;81.20;;;;;;4981353;28;20069;-52
2022/08/25 00:58:05;;;;;;;3.42;2.90;;;22.50;81.70;;;;;;5012421;28;20496;-50
2022/08/25 01:00:35;;;;;;;4.65;2.75;;;22.50;81.90;;;;;;5012425;28;20033;-52
2022/08/25 01:03:00;;;;;;;6.30;2.85;;;22.40;82.70;;;;;;5011996;28;20389;-49
2022/08/25 01:05:27;;;;;;;3.55;2.42;;;22.40;83.10;;;;;;5012318;28;20030;-51
2022/08/25 01:07:54;;;;;;;4.07;2.65;;;22.40;83.40;;;;;;5012022;28;20022;-49
2022/08/25 01:10:21;;;;;;;3.20;2.45;;;22.30;83.80;;;;;;5010826;28;20117;-51
2022/08/25 01:12:48;;;;;;;4.93;2.83;;;22.30;84.10;;;;;;5010306;28;20033;-48
2022/08/25 01:15:15;;;;;;;4.68;2.50;;;22.30;84.20;;;;;;5012040;28;20437;-52
2022/08/25 01:17:47;;;;;;;9.68;2.80;;;22.20;84.70;;;;;;5012125;28;20543;-53
2022/08/25 01:20:14;;;;;;;5.90;2.45;;;22.10;85.00;;;;;;5010555;28;20030;-51
2022/08/25 01:22:40;;;;;;;7.30;2.70;;;22.10;85.40;;;;;;5011278;28;20026;-52
2022/08/25 01:25:24;;;;;;;2.90;2.70;;;22.10;85.50;;;;;;5012087;28;20505;-54
2022/08/25 01:27:50;;;;;;;3.13;2.78;;;22.00;85.70;;;;;;5011652;28;20076;-54
2022/08/25 01:30:15;;;;;;;5.80;3.15;;;21.90;86.00;;;;;;5010469;28;20030;-54
2022/08/25 01:32:41;;;;;;;4.30;3.13;;;21.80;86.50;;;;;;5011038;28;20030;-52
2022/08/25 01:35:07;;;;;;;4.45;2.90;;;21.80;86.90;;;;;;5011767;28;20029;-51
2022/08/25 01:37:33;;;;;;;6.85;3.10;;;21.80;87.30;;;;;;5011694;28;20030;-50
2022/08/25 01:39:59;;;;;;;5.07;2.92;;;21.70;87.70;;;;;;5011699;28;20034;-51
2022/08/25 01:42:47;;;;;;;5.72;2.90;;;21.70;88.00;;;;;;5011335;28;20544;-49
2022/08/25 01:45:13;;;;;;;7.30;3.42;;;21.70;88.20;;;;;;5010334;28;20025;-52
2022/08/25 01:47:38;;;;;;;4.13;2.88;;;21.70;88.80;;;;;;5010318;28;20121;-49
2022/08/25 01:50:06;;;;;;;4.75;2.78;;;21.60;89.10;;;;;;5010471;28;20083;-49
2022/08/25 01:52:49;;;;;;;5.28;2.97;;;21.60;89.40;;;;;;5011294;28;20042;-51
2022/08/25 01:55:14;;;;;;;4.20;3.15;;;21.60;89.70;;;;;;5010423;28;20414;-51
2022/08/25 01:57:40;;;;;;;7.22;3.22;;;21.70;89.90;;;;;;5011328;28;20022;-49
2022/08/25 02:00:09;;;;;;;5.45;3.08;;;21.80;89.80;;;;;;5010231;28;20023;-53
2022/08/25 02:02:34;;;;;;;3.55;3.22;;;21.80;90.00;;;;;;5011071;28;20018;-49
2022/08/25 02:05:00;;;;;;;5.88;3.60;;;21.80;90.10;;;;;;5011552;28;20588;-54
2022/08/25 02:07:25;;;;;;;8.77;3.80;;;21.80;90.20;;;;;;5011391;28;20037;-51
2022/08/25 02:09:51;;;;;;;3.63;3.33;;;21.80;90.30;;;;;;5011423;28;20119;-54
2022/08/25 02:12:16;;;;;;;4.65;3.20;;;21.80;90.50;;;;;;5009755;28;20022;-50
2022/08/25 02:14:42;;;;;;;9.38;3.63;;;21.70;90.60;;;;;;5010042;28;20450;-47
2022/08/25 02:17:08;;;;;;;8.68;3.47;;;21.60;90.90;;;;;;5011217;28;20117;-49
2022/08/25 02:19:34;;;;;;;4.10;3.75;;;21.60;91.10;;;;;;5010056;28;20030;-50
2022/08/25 02:22:00;;;;;;;5.90;3.50;;;21.60;91.30;;;;;;5010974;28;20528;-53
2022/08/25 02:24:25;;;;;;;4.47;3.80;;;21.60;91.30;;;;;;5011347;28;20080;-50
2022/08/25 02:26:51;;;;;;;4.90;3.50;;;21.50;91.40;;;;;;5011245;28;20018;-53
2022/08/25 02:29:17;;;;;;;5.07;3.72;;;21.50;91.70;;;;;;5011186;28;20485;-50
2022/08/25 02:31:43;;;;;;;5.00;3.47;;;21.50;91.90;;;;;;5009761;28;20408;-53
2022/08/25 02:34:09;;;;;;;4.35;3.88;;;21.50;92.00;;;;;;5010916;28;20038;-49
2022/08/25 02:36:36;;;;;;;8.60;3.55;;;21.40;92.10;;;;;;5011225;28;20045;-54
2022/08/25 02:39:04;;;;;;;6.35;3.63;;;21.40;92.20;;;;;;5010895;28;20141;-53
2022/08/25 02:41:30;;;;;;;6.35;3.85;;;21.40;92.50;;;;;;5011219;28;20022;-51
2022/08/25 02:43:55;;;;;;;4.43;3.72;;;21.40;92.70;;;;;;5010754;28;20048;-49
2022/08/25 02:46:23;;;;;;;8.27;4.22;;;21.30;92.80;;;;;;5009848;28;20030;-53
2022/08/25 02:48:51;;;;;;;3.60;3.30;;;21.30;92.90;;;;;;5011013;28;20420;-49
2022/08/25 02:51:17;;;;;;;4.13;3.72;;;21.20;93.20;;;;;;5010977;28;20504;-49
2022/08/25 02:53:45;;;;;;;5.90;3.63;;;21.10;93.30;;;;;;5010693;28;20057;-47
2022/08/25 02:56:12;;;;;;;5.63;4.38;;;21.10;93.40;;;;;;5011347;28;20498;-49
2022/08/25 02:58:38;;;;;;;4.65;3.70;;;21.10;93.60;;;;;;5013151;28;20416;-52
2022/08/25 03:01:06;;;;;;;8.20;4.93;;;21.10;93.60;;;;;;5014360;28;20077;-48
2022/08/25 03:03:31;;;;;;;4.97;4.07;;;21.10;93.80;;;;;;5014190;28;20072;-48
2022/08/25 03:05:57;;;;;;;4.20;3.80;;;21.10;93.90;;;;;;5013069;28;20058;-48
2022/08/25 03:08:24;;;;;;;5.47;4.05;;;21.00;94.20;;;;;;5014278;28;20037;-51
2022/08/25 03:10:50;;;;;;;10.13;4.35;;;21.00;94.10;;;;;;5014384;28;20022;-51
2022/08/25 03:13:16;;;;;;;4.18;3.78;;;21.00;94.10;;;;;;5013829;28;20042;-50
2022/08/25 03:15:41;;;;;;;4.78;3.88;;;21.00;94.30;;;;;;5014197;28;20076;-51
2022/08/25 03:18:07;;;;;;;7.85;4.43;;;21.00;94.40;;;;;;5013946;28;20038;-49
2022/08/25 03:20:34;;;;;;;7.82;4.18;;;21.00;94.50;;;;;;5014161;28;20022;-51
2022/08/25 03:23:01;;;;;;;9.27;3.90;;;21.00;94.60;;;;;;5013777;28;20024;-48
2022/08/25 03:28:12;;;;;;;5.73;3.87;;;21.00;94.90;;;;;;5014028;28;20038;-51
2022/08/25 03:30:37;;;;;;;4.88;4.00;;;20.90;95.10;;;;;;5012546;28;20119;-50
2022/08/25 03:33:03;;;;;;;4.85;4.20;;;20.90;95.30;;;;;;5013418;28;20108;-52
2022/08/25 03:35:28;;;;;;;7.78;4.07;;;20.90;95.50;;;;;;5013645;28;20553;-50
2022/08/25 03:37:55;;;;;;;5.05;4.40;;;20.90;95.60;;;;;;5013952;28;20080;-52
2022/08/25 03:40:22;;;;;;;9.15;4.53;;;20.90;95.70;;;;;;5013889;28;20022;-52
2022/08/25 03:42:48;;;;;;;6.20;4.20;;;20.90;95.80;;;;;;5013410;28;20435;-49
2022/08/25 03:45:15;;;;;;;6.07;4.53;;;20.90;95.90;;;;;;5012405;28;20058;-51
2022/08/25 03:47:43;;;;;;;7.38;4.28;;;20.90;95.90;;;;;;5013519;28;20056;-53
2022/08/25 03:50:10;;;;;;;4.85;4.22;;;20.90;96.00;;;;;;5013447;28;20116;-50
2022/08/25 03:52:37;;;;;;;5.85;4.25;;;20.90;96.00;;;;;;5013248;28;20433;-48
2022/08/25 03:55:06;;;;;;;4.63;4.22;;;20.90;96.20;;;;;;5013711;28;20061;-49
2022/08/25 03:57:32;;;;;;;4.97;4.47;;;20.90;96.30;;;;;;5013665;28;20116;-53
2022/08/25 03:59:57;;;;;;;5.85;4.85;;;20.90;96.40;;;;;;5013275;28;20034;-50
2022/08/25 04:02:23;;;;;;;5.35;4.85;;;20.90;96.50;;;;;;5012846;28;20049;-50
2022/08/25 04:04:49;;;;;;;7.97;4.47;;;20.80;96.60;;;;;;5013325;28;20014;-50
2022/08/25 04:07:15;;;;;;;6.05;4.60;;;20.80;96.80;;;;;;5011455;28;20490;-52
2022/08/25 04:09:40;;;;;;;7.93;5.15;;;20.80;96.90;;;;;;5013154;28;20429;-54
2022/08/25 04:12:06;;;;;;;5.90;5.15;;;20.70;97.00;;;;;;5012851;28;20070;-50
2022/08/25 04:14:32;;;;;;;9.60;5.00;;;20.70;97.20;;;;;;5012927;28;20042;-50
2022/08/25 04:16:57;;;;;;;10.52;5.38;;;20.70;97.40;;;;;;5011681;28;20490;-49
2022/08/25 04:19:23;;;;;;;14.05;5.82;;;20.70;97.40;;;;;;5011737;28;20068;-50
2022/08/25 04:21:49;;;;;;;5.95;4.97;;;20.70;97.50;;;;;;5012703;28;20026;-55
2022/08/25 04:24:14;;;;;;;6.97;5.07;;;20.70;97.60;;;;;;5012817;28;20060;-50
2022/08/25 04:26:43;;;;;;;5.78;5.28;;;20.70;97.80;;;;;;5012967;28;20072;-52
2022/08/25 04:29:10;;;;;;;6.30;5.72;;;20.70;97.70;;;;;;5012683;28;20018;-52
2022/08/25 04:31:39;;;;;;;8.35;6.28;;;20.70;97.70;;;;;;5012563;28;20034;-52
2022/08/25 04:34:05;;;;;;;8.23;7.22;;;20.70;97.70;;;;;;5012506;28;20033;-51
2022/08/25 04:36:32;;;;;;;8.05;6.22;;;20.70;97.80;;;;;;5012870;28;20397;-51
2022/08/25 04:38:58;;;;;;;9.15;6.10;;;20.70;97.90;;;;;;5012527;28;20109;-53
2022/08/25 04:41:24;;;;;;;8.00;6.35;;;20.70;98.00;;;;;;5012371;28;20444;-51
2022/08/25 04:43:51;;;;;;;10.43;6.10;;;20.70;97.90;;;;;;5012406;28;20025;-54
2022/08/25 04:46:23;;;;;;;11.63;5.95;;;20.70;98.00;;;;;;5012968;28;20030;-51
2022/08/25 04:48:50;;;;;;;7.43;5.65;;;20.70;98.00;;;;;;5012591;28;20084;-53
2022/08/25 04:51:29;;;;;;;9.52;6.35;;;20.70;98.00;;;;;;5011353;28;20571;-49
2022/08/25 04:53:57;;;;;;;11.30;6.32;;;20.80;98.00;;;;;;5012376;28;20026;-54
2022/08/25 04:56:24;;;;;;;12.40;5.95;;;20.70;98.10;;;;;;5012103;28;20026;-49
2022/08/25 04:58:50;;;;;;;10.77;5.80;;;20.70;98.10;;;;;;5012257;28;20030;-50
2022/08/25 05:01:20;;;;;;;8.45;6.22;;;20.80;98.10;;;;;;5010717;28;20129;-49
2022/08/25 05:03:47;;;;;;;7.57;5.68;;;20.70;98.10;;;;;;5011945;28;20489;-48
2022/08/25 05:06:13;;;;;;;8.15;6.75;;;20.70;98.30;;;;;;5011991;28;20037;-48
2022/08/25 05:08:39;;;;;;;7.75;6.13;;;20.70;98.30;;;;;;5010951;28;20022;-53
2022/08/25 05:11:11;;;;;;;10.23;6.00;;;20.80;98.20;;;;;;5011963;28;20037;-49
2022/08/25 05:13:37;;;;;;;9.30;7.18;;;20.90;98.30;;;;;;5011840;28;20026;-48
2022/08/25 05:16:03;;;;;;;8.85;6.28;;;20.90;98.30;;;;;;5012073;28;20109;-47
2022/08/25 05:18:30;;;;;;;7.10;5.50;;;21.00;98.10;;;;;;5052190;22;20055;-47
2022/08/25 05:21:01;;;;;;;10.80;5.88;;;21.20;98.00;;;;;;5052068;28;20037;-44
2022/08/25 05:23:26;;;;;;;8.00;5.13;;;21.30;97.70;;;;;;5052696;28;20043;-45
2022/08/25 05:25:52;;;;;;;10.13;5.80;;;21.30;97.60;;;;;;5053640;28;20021;-45
2022/08/25 05:28:19;;;;;;;6.80;5.60;;;21.40;97.60;;;;;;5053025;28;20021;-45
2022/08/25 05:30:47;;;;;;;9.13;6.72;;;21.50;97.50;;;;;;5052789;28;20036;-49
2022/08/25 05:33:12;;;;;;;10.45;5.40;;;21.70;97.40;;;;;;5052731;28;20029;-47
2022/08/25 05:35:38;;;;;;;10.13;5.30;;;21.70;97.40;;;;;;5051548;28;20039;-46
2022/08/25 05:38:05;;;;;;;10.65;5.20;;;21.80;97.20;;;;;;5050764;28;20047;-45
2022/08/25 05:40:31;;;;;;;12.18;5.50;;;21.90;97.20;;;;;;5051332;28;20052;-46
2022/08/25 05:42:57;;;;;;;14.07;5.90;;;22.00;97.00;;;;;;5051175;28;20447;-44
2022/08/25 05:45:23;;;;;;;10.68;5.32;;;22.20;96.90;;;;;;5049909;28;20024;-44
2022/08/25 05:47:49;;;;;;;10.05;5.35;;;22.40;96.70;;;;;;5051320;28;20029;-44
2022/08/25 05:50:15;;;;;;;10.45;5.63;;;22.50;96.50;;;;;;5051786;28;20036;-46
2022/08/25 05:52:40;;;;;;;11.73;6.20;;;22.60;96.40;;;;;;5051129;28;20040;-48
2022/08/25 05:55:07;;;;;;;7.38;5.72;;;22.80;96.20;;;;;;5051188;28;20017;-47
2022/08/25 05:57:33;;;;;;;6.40;5.75;;;22.90;95.80;;;;;;5052021;28;20029;-50
2022/08/25 05:59:59;;;;;;;6.97;6.00;;;23.10;95.90;;;;;;5051577;28;20052;-50
2022/08/25 06:02:39;;;;;;;8.02;5.40;;;23.40;95.40;;;;;;5050162;28;20063;-47
2022/08/25 06:05:06;;;;;;;6.88;5.63;;;23.60;95.00;;;;;;5051676;28;20021;-49
2022/08/25 06:07:32;;;;;;;8.52;4.95;;;24.00;94.50;;;;;;5052146;28;20021;-45
2022/08/25 06:09:58;;;;;;;9.00;5.75;;;24.20;94.40;;;;;;5051235;28;20017;-50
2022/08/25 06:12:23;;;;;;;11.05;5.65;;;24.50;93.60;;;;;;5051136;28;20027;-45
2022/08/25 06:14:49;;;;;;;8.77;5.50;;;24.80;92.90;;;;;;5051271;28;20451;-42
2022/08/25 06:17:16;;;;;;;5.78;5.20;;;25.10;92.30;;;;;;5050913;28;20036;-45
2022/08/25 06:19:42;;;;;;;11.38;4.93;;;25.20;92.00;;;;;;5051001;28;20480;-50
2022/08/25 06:22:07;;;;;;;10.90;5.63;;;25.50;91.60;;;;;;5050352;28;20060;-45
2022/08/25 06:24:33;;;;;;;13.63;4.82;;;25.70;91.30;;;;;;5050856;28;20044;-45
2022/08/25 06:26:59;;;;;;;12.93;5.18;;;26.00;90.80;;;;;;5049486;28;20032;-45
2022/08/25 06:29:25;;;;;;;16.13;4.90;;;26.50;90.40;;;;;;5051327;28;20029;-48
2022/08/25 06:31:50;;;;;;;5.43;5.00;;;26.90;88.80;;;;;;5054435;28;20056;-45
2022/08/25 06:34:17;;;;;;;7.95;4.72;;;27.20;88.10;;;;;;5054590;28;20029;-45
2022/08/25 06:36:43;;;;;;;11.93;5.85;;;27.60;87.00;;;;;;5055149;28;20428;-44
2022/08/25 06:39:09;;;;;;;5.50;5.00;;;27.70;86.60;;;;;;5055772;28;20052;-50
2022/08/25 06:41:36;;;;;;;5.95;5.05;;;27.70;86.60;;;;;;5054826;28;20114;-45
2022/08/25 06:44:01;;;;;;;6.20;4.75;;;27.90;85.80;;;;;;5054974;28;20048;-45
2022/08/25 06:46:28;;;;;;;6.45;5.50;;;28.10;85.00;;;;;;5054908;28;20476;-49
2022/08/25 06:48:55;;;;;;;5.68;5.15;;;28.40;84.40;;;;;;5054840;28;20417;-46
2022/08/25 06:51:22;;;;;;;8.88;4.75;;;28.80;83.70;;;;;;5055141;28;20507;-45
2022/08/25 06:53:48;;;;;;;11.32;5.35;;;28.90;83.50;;;;;;5055352;28;20555;-47
2022/08/25 06:56:16;;;;;;;8.40;5.68;;;28.90;83.10;;;;;;5055256;28;20056;-43
2022/08/25 06:58:41;;;;;;;12.55;5.38;;;29.40;82.20;;;;;;5055072;28;20088;-48
2022/08/25 07:01:13;;;;;;;12.20;5.63;;;29.30;82.10;;;;;;5054994;28;20440;-46
2022/08/25 07:03:39;;;;;;;7.38;5.47;;;29.10;82.60;;;;;;5055139;28;20024;-47
2022/08/25 07:06:05;;;;;;;8.23;6.07;;;29.30;82.10;;;;;;5054712;28;20024;-46
2022/08/25 07:08:32;;;;;;;8.52;4.90;;;29.20;82.20;;;;;;5054354;28;20057;-46
2022/08/25 07:11:02;;;;;;;6.80;5.53;;;29.50;82.10;;;;;;5055100;28;20033;-44
2022/08/25 07:13:30;;;;;;;7.47;5.35;;;29.70;81.40;;;;;;5054150;28;20036;-49
2022/08/25 07:15:55;;;;;;;7.95;4.82;;;30.00;81.40;;;;;;5054205;28;20032;-46
2022/08/25 07:18:21;;;;;;;7.40;5.38;;;30.60;79.90;;;;;;5053912;28;20033;-47
2022/08/25 07:20:47;;;;;;;7.15;5.35;;;30.70;79.50;;;;;;5054286;28;20100;-45
2022/08/25 07:23:12;;;;;;;12.75;5.18;;;31.10;78.80;;;;;;5053934;28;20023;-46
2022/08/25 07:25:38;;;;;;;9.20;6.05;;;31.20;78.30;;;;;;5054174;28;20404;-45
2022/08/25 07:28:03;;;;;;;8.48;5.25;;;30.90;78.50;;;;;;5054019;28;20029;-45
2022/08/25 07:30:30;;;;;;;10.63;5.78;;;31.30;78.50;;;;;;5054096;28;20067;-53
2022/08/25 07:32:55;;;;;;;5.57;5.00;;;31.70;76.90;;;;;;5053515;28;20522;-46
2022/08/25 07:35:24;;;;;;;7.10;5.07;;;31.80;77.40;;;;;;5054132;28;20033;-48
2022/08/25 07:37:51;;;;;;;12.32;5.40;;;31.80;76.60;;;;;;5053771;28;20057;-50
2022/08/25 07:40:24;;;;;;;8.32;5.30;;;31.80;76.80;;;;;;5054119;28;20036;-44
2022/08/25 07:42:52;;;;;;;11.77;4.82;;;31.80;77.00;;;;;;5052702;28;20406;-50
2022/08/25 07:45:19;;;;;;;9.18;4.95;;;32.30;76.50;;;;;;5054289;28;20029;-49
2022/08/25 07:47:45;;;;;;;8.10;5.15;;;32.70;74.70;;;;;;5054258;28;20021;-49
2022/08/25 07:50:12;;;;;;;9.63;5.68;;;32.80;74.40;;;;;;5052381;28;20028;-47
2022/08/25 07:52:39;;;;;;;6.60;5.80;;;32.30;75.00;;;;;;5053486;28;20029;-48
2022/08/25 07:55:06;;;;;;;8.52;5.22;;;32.20;75.50;;;;;;5053533;28;20433;-50
2022/08/25 07:57:32;;;;;;;10.45;5.10;;;32.20;75.40;;;;;;5053560;28;20177;-47
2022/08/25 07:59:58;;;;;;;12.63;5.00;;;32.00;75.80;;;;;;5050626;28;20460;-45
2022/08/25 08:02:25;;;;;;;9.00;4.65;;;32.20;76.40;;;;;;5046562;28;20096;-46
2022/08/25 08:04:52;;;;;;;8.77;5.75;;;32.40;75.00;;;;;;5053758;28;20023;-47
2022/08/25 08:07:24;;;;;;;6.45;4.88;;;31.90;75.80;;;;;;5053240;28;20024;-43
2022/08/25 08:09:50;;;;;;;6.10;5.15;;;31.40;76.80;;;;;;5053785;28;20071;-45
2022/08/25 08:12:16;;;;;;;10.35;4.38;;;31.50;77.20;;;;;;5051183;28;20109;-48
2022/08/25 08:14:41;;;;;;;7.55;5.13;;;31.70;76.20;;;;;;5052675;28;20096;-53
2022/08/25 08:17:08;;;;;;;6.60;5.18;;;31.90;76.50;;;;;;5034952;28;20080;-52
2022/08/25 08:19:35;;;;;;;6.53;5.00;;;32.20;75.80;;;;;;5052792;28;20563;-48
2022/08/25 08:22:02;;;;;;;8.80;5.18;;;32.30;75.30;;;;;;5052178;28;20091;-45
2022/08/25 08:24:37;;;;;;;6.35;5.68;;;32.80;74.90;;;;;;5052404;28;20460;-50
2022/08/25 08:27:07;;;;;;;4.68;4.28;;;33.50;73.80;;;;;;5052109;28;20027;-45
2022/08/25 08:29:33;;;;;;;5.15;4.65;;;33.60;72.30;;;;;;5043188;28;20040;-46
2022/08/25 08:31:59;;;;;;;6.00;4.55;;;33.90;71.30;;;;;;5051925;28;20097;-45
2022/08/25 08:34:24;;;;;;;5.30;4.25;;;33.60;72.00;;;;;;5052832;28;20116;-50
2022/08/25 08:36:50;;;;;;;6.65;4.22;;;34.10;70.90;;;;;;5050872;28;20059;-52
2022/08/25 08:39:15;;;;;;;4.68;4.28;;;34.00;71.00;;;;;;5048424;28;20060;-47
2022/08/25 08:42:16;;;;;;;4.57;3.88;;;33.80;70.80;;;;;;5052070;28;20112;-46
2022/08/25 08:44:44;;;;;;;7.10;5.22;;;33.40;71.50;;;;;;5052448;28;20029;-46
2022/08/25 08:47:26;;;;;;;6.85;4.40;;;32.90;71.90;;;;;;5052395;28;20021;-47
2022/08/25 08:50:23;;;;;;;6.60;4.18;;;33.10;72.70;;;;;;5052429;28;20029;-48
2022/08/25 08:52:59;;;;;;;6.18;4.47;;;33.60;71.50;;;;;;5052034;28;20024;-45
2022/08/25 08:55:39;;;;;;;6.68;4.45;;;33.90;70.50;;;;;;5052621;28;20491;-50
2022/08/25 08:58:09;;;;;;;5.55;4.43;;;33.80;70.20;;;;;;5052402;28;20013;-51
2022/08/25 09:00:40;;;;;;;8.43;4.72;;;33.70;70.40;;;;;;5052508;28;20032;-47
2022/08/25 09:03:10;;;;;;;11.68;4.78;;;33.20;70.80;;;;;;5051975;28;20028;-47
2022/08/25 09:05:47;;;;;;;9.80;5.00;;;32.40;72.10;;;;;;5052291;28;20138;-46
2022/08/25 09:08:14;;;;;;;5.47;4.97;;;31.80;73.60;;;;;;5051855;28;20020;-55
2022/08/25 09:11:07;;;;;;;7.22;4.50;;;31.40;74.10;;;;;;5051974;28;20504;-47
2022/08/25 09:13:42;;;;;;;6.97;4.43;;;31.10;74.40;;;;;;5051572;28;20029;-45
2022/08/25 09:19:30;;;;;;;6.78;4.20;;;30.90;74.90;;;;;;5052078;28;19958;-47
2022/08/25 09:22:26;;;;;;;5.25;4.28;;;30.50;74.10;;;;;;5044240;28;20022;-46
2022/08/25 09:25:10;;;;;;;9.52;4.80;;;30.10;75.30;;;;;;5051114;28;20056;-47
2022/08/25 09:27:55;;;;;;;;;;;30.10;75.80;;;;;;5052540;28;20049;-48
2022/08/25 09:30:21;;;;;;;5.65;4.07;;;30.30;76.00;;;;;;5052445;28;19966;-44
2022/08/25 09:32:52;;;;;;;9.25;4.35;;;30.50;75.00;;;;;;5047040;28;20029;-47
2022/08/25 09:35:25;;;;;;;4.60;4.20;;;30.70;74.60;;;;;;5051374;28;20055;-47
2022/08/25 09:38:18;;;;;;;4.47;4.10;;;30.60;74.50;;;;;;5052270;28;20017;-45
2022/08/25 09:40:47;;;;;;;7.25;4.55;;;30.50;74.60;;;;;;5050490;28;20085;-48
2022/08/25 09:43:27;;;;;;;6.85;4.85;;;30.20;75.50;;;;;;5050867;28;20025;-44
2022/08/25 09:46:08;;;;;;;5.68;5.18;;;29.80;76.40;;;;;;5051424;28;20032;-43
2022/08/25 09:48:50;;;;;;;7.88;5.05;;;29.80;76.70;;;;;;5050432;28;20029;-45
2022/08/25 09:51:28;;;;;;;6.40;4.88;;;30.00;76.30;;;;;;5044154;28;20514;-47
2022/08/25 09:54:14;;;;;;;5.10;4.70;;;30.10;75.90;;;;;;5050969;28;20052;-48
2022/08/25 09:56:49;;;;;;;5.30;4.38;;;30.10;76.30;;;;;;5040429;28;20045;-45
2022/08/25 09:59:22;;;;;;;6.18;4.88;;;30.00;76.10;;;;;;5042206;28;20022;-49
2022/08/25 10:01:53;;;;;;;10.98;9.05;;;30.00;76.70;;;;;;5044363;28;20472;-46
2022/08/25 10:04:33;;;;;;;16.05;11.40;;;30.00;77.00;;;;;;5051352;28;20108;-52
2022/08/25 10:07:01;;;;;;;7.60;5.53;;;30.00;76.30;;;;;;5053806;28;20029;-53
2022/08/25 10:09:35;;;;;;;5.50;4.97;;;29.80;77.30;;;;;;5044629;28;20096;-43
2022/08/25 10:12:03;;;;;;;6.73;4.90;;;29.70;77.50;;;;;;5051217;28;20040;-43
2022/08/25 10:14:39;;;;;;;9.73;6.20;;;29.80;78.20;;;;;;5051202;28;20028;-50
2022/08/25 10:17:23;;;;;;;8.40;5.05;;;29.80;78.00;;;;;;5034469;28;20022;-48
2022/08/25 10:19:51;;;;;;;6.22;5.10;;;30.00;77.30;;;;;;5039685;28;20624;-46
2022/08/25 10:22:31;;;;;;;5.32;4.40;;;30.20;76.30;;;;;;5043723;28;20134;-42
2022/08/25 10:24:57;;;;;;;7.20;4.97;;;30.20;75.20;;;;;;5049750;28;20048;-45
2022/08/25 10:27:48;;;;;;;6.20;4.80;;;30.00;76.50;;;;;;5037383;28;20044;-44
2022/08/25 10:30:24;;;;;;;5.82;5.18;;;30.00;77.00;;;;;;5041401;28;20488;-47
2022/08/25 10:33:01;;;;;;;6.55;5.25;;;29.90;77.60;;;;;;5052928;28;20025;-43
2022/08/25 10:35:35;;;;;;;5.88;5.20;;;29.90;77.40;;;;;;5054738;28;20567;-46
2022/08/25 10:38:27;;;;;;;6.07;5.47;;;29.70;78.00;;;;;;5047376;28;20041;-45
2022/08/25 10:41:21;;;;;;;7.85;5.25;;;29.80;77.50;;;;;;5033652;28;20115;-48
2022/08/25 10:43:52;;;;;;;5.72;5.20;;;29.90;76.60;;;;;;5053988;28;20086;-49
2022/08/25 10:46:25;;;;;;;6.38;5.82;;;29.70;77.50;;;;;;5054783;28;20098;-46
2022/08/25 10:49:18;;;;;;;6.10;5.60;;;29.60;78.10;;;;;;5040927;28;20400;-48
2022/08/25 10:51:56;;;;;;;8.27;5.63;;;29.50;78.20;;;;;;5054192;28;20020;-45
2022/08/25 10:54:45;;;;;;;7.35;4.70;;;29.40;78.40;;;;;;5036761;28;20059;-46
2022/08/25 10:57:19;;;;;;;5.18;4.68;;;29.30;77.00;;;;;;5034264;28;20029;-47
2022/08/25 11:00:10;;;;;;;8.43;4.85;;;29.30;76.20;;;;;;5034105;28;20372;-46
2022/08/25 11:03:02;;;;;;;5.88;5.30;;;29.30;76.50;;;;;;5051713;28;20032;-51
2022/08/25 11:05:39;;;;;;;9.80;5.40;;;29.40;77.40;;;;;;5022102;28;20047;-51
2022/08/25 11:08:11;;;;;;;7.70;4.60;;;29.50;76.80;;;;;;5042273;28;20020;-51
2022/08/25 11:11:02;;;;;;;6.93;5.00;;;29.50;76.00;;;;;;5051635;28;20120;-49
2022/08/25 11:13:37;;;;;;;6.05;5.03;;;29.60;76.10;;;;;;5053585;28;20116;-49
2022/08/25 11:16:08;;;;;;;;;;;29.50;76.10;;;;;;5032616;28;20033;-44
2022/08/25 11:18:44;;;;;;;13.77;12.35;;;29.50;76.00;;;;;;5038880;28;19912;-48
2022/08/25 11:24:04;;;;;;;4.15;3.78;;;29.70;75.70;;;;;;5010690;28;20084;-48
2022/08/25 11:26:34;;;;;;;5.18;3.88;;;29.80;73.40;;;;;;5012605;28;20024;-50
2022/08/25 11:29:15;;;;;;;4.85;4.35;;;29.90;74.10;;;;;;5013451;28;20032;-47
2022/08/25 11:31:44;;;;;;;4.50;3.95;;;30.00;74.40;;;;;;5028473;28;20030;-52
2022/08/25 11:34:14;;;;;;;5.00;3.60;;;29.90;74.30;;;;;;5029827;28;20025;-47
2022/08/25 11:36:42;;;;;;;3.83;3.42;;;29.90;72.70;;;;;;5012972;28;20033;-53
2022/08/25 11:39:25;;;;;;;4.35;3.40;;;29.90;71.20;;;;;;5014339;28;20105;-53
2022/08/25 11:42:30;;;;;;;4.13;3.40;;;29.90;71.90;;;;;;5013445;28;20141;-52
2022/08/25 11:45:11;;;;;;;3.75;3.42;;;29.80;72.70;;;;;;5012319;28;20022;-49
2022/08/25 11:47:55;;;;;;;4.43;4.03;;;29.90;72.10;;;;;;5014133;28;20525;-51
2022/08/25 11:50:25;;;;;;;3.35;3.15;;;29.90;72.50;;;;;;5013589;28;20030;-48
2022/08/25 11:52:58;;;;;;;3.78;3.47;;;30.00;72.40;;;;;;5012349;28;20026;-48
2022/08/25 11:55:36;;;;;;;5.15;3.10;;;30.00;72.80;;;;;;5008214;28;20482;-47
2022/08/25 11:58:19;;;;;;;3.30;3.10;;;30.00;70.20;;;;;;5010060;28;20448;-47
2022/08/25 12:00:45;;;;;;;4.90;3.20;;;30.00;71.60;;;;;;5010974;28;20022;-50
2022/08/25 12:03:35;;;;;;;4.13;3.83;;;30.10;73.00;;;;;;5012326;28;20083;-49
2022/08/25 12:06:16;;;;;;;9.65;5.00;;;30.30;74.10;;;;;;5013045;28;20075;-51
2022/08/25 12:08:48;;;;;;;6.25;4.25;;;30.30;74.20;;;;;;5013195;28;20029;-48
2022/08/25 12:11:36;;;;;;;6.82;4.88;;;30.20;73.90;;;;;;5013362;28;20030;-48
2022/08/25 12:14:25;;;;;;;5.03;4.05;;;30.20;73.60;;;;;;5013691;28;20030;-48
2022/08/25 12:16:52;;;;;;;7.65;4.95;;;30.10;73.40;;;;;;5009066;28;20050;-48
2022/08/25 12:19:35;;;;;;;5.43;4.38;;;29.90;73.50;;;;;;5011570;28;20026;-52
2022/08/25 12:22:01;;;;;;;4.40;4.00;;;29.80;73.90;;;;;;5010658;28;20029;-46
2022/08/25 12:24:41;;;;;;;9.10;5.03;;;29.70;73.40;;;;;;5011268;28;20509;-44
2022/08/25 12:27:28;;;;;;;4.80;4.30;;;29.60;73.80;;;;;;5012647;28;20028;-46
2022/08/25 12:30:06;;;;;;;32.88;7.03;;;29.60;73.90;;;;;;5011703;28;20026;-48
2022/08/25 12:32:59;;;;;;;19.23;8.02;;;29.60;74.00;;;;;;5011851;28;20026;-46
2022/08/25 12:35:29;;;;;;;5.03;4.63;;;29.70;74.70;;;;;;5012197;28;20029;-48
2022/08/25 12:38:08;;;;;;;3.97;3.58;;;29.90;72.30;;;;;;5012514;28;20026;-48
2022/08/25 12:40:57;;;;;;;3.15;2.88;;;30.00;71.40;;;;;;5012546;28;20026;-49
2022/08/25 12:43:29;;;;;;;3.30;3.10;;;30.10;70.10;;;;;;5012325;28;20033;-48
2022/08/25 12:46:25;;;;;;;3.63;3.30;;;29.90;70.90;;;;;;5012365;28;20045;-51
2022/08/25 12:49:02;;;;;;;3.90;3.60;;;29.80;71.00;;;;;;5010949;28;20175;-46
2022/08/25 12:51:46;;;;;;;3.95;3.42;;;29.90;72.00;;;;;;5011903;28;20029;-49
2022/08/25 12:54:51;;;;;;;6.05;3.20;;;30.10;70.80;;;;;;5012386;28;20073;-48
2022/08/25 12:57:38;;;;;;;4.57;3.83;;;30.20;71.70;;;;;;5012228;28;20555;-49
2022/08/25 13:00:15;;;;;;;3.72;3.42;;;30.30;71.30;;;;;;5012520;28;20257;-48
2022/08/25 13:03:18;;;;;;;2.95;2.75;;;30.40;70.70;;;;;;5011366;28;20030;-49
2022/08/25 13:06:05;;;;;;;4.28;2.88;;;30.50;69.60;;;;;;5011430;28;20191;-48
2022/08/25 13:08:51;;;;;;;5.32;3.42;;;30.50;69.60;;;;;;5017307;28;20123;-46
2022/08/25 13:11:26;;;;;;;3.92;3.30;;;30.60;70.00;;;;;;5012015;28;20497;-43
2022/08/25 13:14:18;;;;;;;3.90;3.38;;;30.40;69.60;;;;;;5011029;28;20037;-47